Terminal Aerodrome Forecast
Issued by NWS

Home | Current Version | Previous Version | Text Only | Print | Product List | Glossary On
Versions: 1 2 3 4 5 6 7 8 9 10 11 12 13
000
FTUS43 KFGF 290539
TAFTVF
TAF
KTVF 290539Z 2906/3006 34012G18KT P6SM BKN035
     FM291100 35021G29KT P6SM OVC012
     FM292000 36016G24KT P6SM BKN025
     FM300100 35013KT P6SM SCT030
      AMD LTD TO CLD VIS AND WIND=

USA.gov is the U.S. government's official web portal to all federal, state and local government web resources and services.